createdAt,value
2019-06-15T00:01:19.594Z,77.72
2019-06-15T00:03:48.889Z,77.31
2019-06-15T00:06:17.884Z,77.12
2019-06-15T00:08:46.538Z,76.98
2019-06-15T00:11:15.582Z,77.05
2019-06-15T00:13:44.537Z,77.05
2019-06-15T00:16:13.755Z,77.29
2019-06-15T00:18:42.439Z,77.79
2019-06-15T00:21:11.439Z,78.27
2019-06-15T00:23:40.426Z,78.03
2019-06-15T00:26:09.061Z,78.55
2019-06-15T00:28:37.845Z,78.70
2019-06-15T00:31:06.798Z,78.83
2019-06-15T00:33:36.030Z,78.49
2019-06-15T00:36:04.782Z,78.57
2019-06-15T00:38:33.762Z,78.72
2019-06-15T00:41:02.406Z,78.88
2019-06-15T00:43:31.089Z,79.25
2019-06-15T00:46:00.041Z,79.31
2019-06-15T00:48:29.033Z,78.84
2019-06-15T00:50:58.442Z,78.72
2019-06-15T00:53:27.874Z,78.88
2019-06-15T00:55:56.735Z,79.18
2019-06-15T00:58:25.930Z,79.36
2019-06-15T01:00:54.554Z,79.43
2019-06-15T01:03:23.508Z,79.29
2019-06-15T01:05:52.711Z,78.77
2019-06-15T01:08:21.443Z,78.64
2019-06-15T01:10:50.699Z,78.67
2019-06-15T01:13:19.586Z,78.46
2019-06-15T01:15:48.494Z,78.09
2019-06-15T01:18:17.119Z,78.13
2019-06-15T01:20:46.477Z,78.19
2019-06-15T01:23:15.353Z,77.85
2019-06-15T01:25:44.377Z,77.23
2019-06-15T01:28:13.343Z,77.29
2019-06-15T01:30:42.339Z,77.21
2019-06-15T01:33:11.638Z,77.25
2019-06-15T01:35:40.274Z,77.08
2019-06-15T01:38:08.920Z,77.04
2019-06-15T01:40:37.558Z,76.97
2019-06-15T01:43:06.494Z,76.88
2019-06-15T01:45:35.490Z,76.43
2019-06-15T01:48:04.220Z,76.06
2019-06-15T01:50:32.867Z,75.99
2019-06-15T01:53:01.917Z,76.00
2019-06-15T01:55:30.851Z,76.54
2019-06-15T01:57:59.493Z,76.40
2019-06-15T02:00:31.811Z,76.57
2019-06-15T02:03:00.609Z,76.25
2019-06-15T02:05:29.337Z,76.25
2019-06-15T02:07:58.090Z,76.17
2019-06-15T02:10:30.021Z,76.48
2019-06-15T02:12:58.739Z,76.23
2019-06-15T02:15:27.432Z,76.17
2019-06-15T02:17:56.138Z,75.63
2019-06-15T02:20:24.787Z,75.36
2019-06-15T02:22:53.790Z,74.78
2019-06-15T02:25:35.352Z,74.45
2019-06-15T02:27:57.498Z,73.69
2019-06-15T02:30:30.628Z,73.74
2019-06-15T02:32:59.346Z,73.43
2019-06-15T02:35:28.483Z,73.69
2019-06-15T02:37:57.273Z,73.77
2019-06-15T02:40:26.558Z,73.80
2019-06-15T02:42:55.349Z,73.54
2019-06-15T02:45:24.963Z,73.17
2019-06-15T02:47:53.951Z,72.83
2019-06-15T02:50:23.247Z,72.59
2019-06-15T02:52:51.884Z,72.59
2019-06-15T02:55:20.699Z,72.52
2019-06-15T02:57:49.422Z,72.97
2019-06-15T03:00:29.763Z,72.60
2019-06-15T03:02:58.511Z,72.62
2019-06-15T03:05:27.750Z,72.41
2019-06-15T03:07:56.761Z,72.24
2019-06-15T03:10:26.050Z,72.40
2019-06-15T03:12:55.247Z,72.12
2019-06-15T03:15:24.140Z,72.16
2019-06-15T03:17:53.040Z,71.85
2019-06-15T03:20:21.752Z,71.58
2019-06-15T03:22:50.718Z,71.82
2019-06-15T03:25:19.703Z,71.71
2019-06-15T03:27:48.708Z,72.06
2019-06-15T03:30:17.606Z,72.02
2019-06-15T03:32:46.493Z,72.03
2019-06-15T03:35:16.746Z,72.14
2019-06-15T03:37:45.344Z,71.88
2019-06-15T03:40:14.395Z,72.05
2019-06-15T03:42:43.060Z,72.03
2019-06-15T03:45:12.139Z,72.16
2019-06-15T03:47:41.091Z,72.12
2019-06-15T03:50:10.784Z,72.37
2019-06-15T03:52:39.397Z,72.34
2019-06-15T03:55:08.656Z,72.33
2019-06-15T03:57:37.467Z,72.25
2019-06-15T04:00:08.259Z,72.18
2019-06-15T04:02:37.188Z,72.30
2019-06-15T04:05:06.270Z,72.40
2019-06-15T04:07:35.277Z,72.59
2019-06-15T04:10:04.322Z,72.47
2019-06-15T04:12:33.251Z,72.66
2019-06-15T04:15:02.148Z,72.69
2019-06-15T04:17:30.774Z,72.54
2019-06-15T04:19:59.730Z,72.53
2019-06-15T04:22:28.617Z,72.66
2019-06-15T04:24:57.503Z,72.41
2019-06-15T04:27:26.130Z,72.37
2019-06-15T04:29:55.085Z,72.65
2019-06-15T04:32:23.749Z,72.70
2019-06-15T04:34:52.385Z,72.82
2019-06-15T04:37:21.351Z,72.84
2019-06-15T04:39:50.051Z,72.34
2019-06-15T04:42:19.083Z,72.53
2019-06-15T04:44:48.352Z,72.30
2019-06-15T04:47:17.322Z,72.24
2019-06-15T04:49:46.216Z,72.19
2019-06-15T04:52:14.849Z,72.16
2019-06-15T04:54:43.792Z,71.93
2019-06-15T04:57:12.785Z,72.15
2019-06-15T04:59:41.420Z,72.29
2019-06-15T05:02:10.568Z,72.48
2019-06-15T05:04:39.775Z,72.15
2019-06-15T05:07:08.408Z,72.06
2019-06-15T05:09:37.683Z,72.07
2019-06-15T05:12:06.411Z,72.38
2019-06-15T05:14:35.640Z,72.58
2019-06-15T05:17:04.532Z,72.57
2019-06-15T05:19:33.731Z,72.66
2019-06-15T05:22:02.838Z,72.40
2019-06-15T05:24:31.821Z,72.70
2019-06-15T05:27:06.292Z,72.77
2019-06-15T05:29:30.857Z,72.93
2019-06-15T05:31:59.833Z,72.94
2019-06-15T05:34:28.809Z,73.06
2019-06-15T05:36:57.736Z,72.89
2019-06-15T05:39:26.920Z,72.70
2019-06-15T05:41:55.827Z,72.80
2019-06-15T05:44:24.487Z,72.49
2019-06-15T05:46:53.116Z,72.80
2019-06-15T05:49:22.382Z,73.13
2019-06-15T05:51:51.112Z,72.98
2019-06-15T05:54:20.360Z,73.29
2019-06-15T05:56:49.016Z,73.82
2019-06-15T05:59:17.742Z,74.03
2019-06-15T06:01:46.629Z,74.16
2019-06-15T06:04:15.255Z,74.21
2019-06-15T06:06:43.958Z,74.24
2019-06-15T06:09:12.893Z,74.07
2019-06-15T06:11:41.779Z,74.14
2019-06-15T06:14:11.085Z,73.67
2019-06-15T06:16:39.725Z,73.61
2019-06-15T06:19:08.389Z,73.54
2019-06-15T06:21:37.343Z,73.55
2019-06-15T06:24:06.345Z,73.48
2019-06-15T06:26:35.345Z,74.46
2019-06-15T06:29:04.330Z,74.03
2019-06-15T06:31:32.996Z,74.21
2019-06-15T06:34:02.219Z,74.54
2019-06-15T06:36:31.417Z,74.72
2019-06-15T06:39:00.717Z,75.22
2019-06-15T06:41:29.386Z,75.13
2019-06-15T06:43:58.753Z,75.61
2019-06-15T06:46:28.013Z,76.00
2019-06-15T06:48:57.006Z,76.25
2019-06-15T06:51:25.637Z,76.63
2019-06-15T06:53:54.625Z,76.58
2019-06-15T06:56:23.570Z,76.93
2019-06-15T06:58:52.498Z,77.05
2019-06-15T07:01:21.449Z,77.12
2019-06-15T07:03:50.447Z,77.13
2019-06-15T07:06:19.445Z,77.05
2019-06-15T07:08:48.175Z,76.83
2019-06-15T07:11:17.134Z,76.56
2019-06-15T07:13:46.080Z,76.41
2019-06-15T07:16:14.715Z,76.34
2019-06-15T07:18:44.005Z,76.72
2019-06-15T07:21:13.311Z,75.92
2019-06-15T07:23:42.301Z,75.54
2019-06-15T07:26:11.313Z,76.04
2019-06-15T07:28:40.303Z,75.98
2019-06-15T07:31:09.684Z,76.04
2019-06-15T07:33:39.012Z,76.72
2019-06-15T07:36:08.304Z,76.56
2019-06-15T07:38:37.035Z,77.70
2019-06-15T07:41:06.070Z,78.39
2019-06-15T07:43:34.732Z,79.08
2019-06-15T07:46:03.498Z,78.96
2019-06-15T07:48:32.440Z,80.49
2019-06-15T07:51:02.047Z,81.05
2019-06-15T07:53:31.260Z,82.06
2019-06-15T07:56:00.271Z,82.01
2019-06-15T07:58:28.912Z,82.34
2019-06-15T08:00:57.818Z,82.20
2019-06-15T08:03:26.809Z,81.87
2019-06-15T08:05:55.455Z,80.65
2019-06-15T08:08:24.486Z,78.92
2019-06-15T08:10:53.135Z,77.74
2019-06-15T08:13:21.796Z,77.08
2019-06-15T08:15:50.779Z,76.60
2019-06-15T08:18:20.057Z,75.91
2019-06-15T08:20:48.693Z,75.04
2019-06-15T08:23:18.133Z,74.87
2019-06-15T08:25:46.786Z,74.29
2019-06-15T08:28:15.486Z,74.71
2019-06-15T08:30:45.744Z,75.71
2019-06-15T08:33:14.371Z,76.75
2019-06-15T08:35:42.988Z,75.83
2019-06-15T08:38:11.714Z,75.65
2019-06-15T08:40:40.804Z,75.60
2019-06-15T08:43:09.519Z,75.21
2019-06-15T08:45:38.791Z,73.79
2019-06-15T08:48:07.425Z,72.77
2019-06-15T08:50:36.370Z,72.98
2019-06-15T08:53:05.464Z,72.94
2019-06-15T08:55:34.441Z,73.11
2019-06-15T08:58:03.395Z,73.03
2019-06-15T09:00:32.064Z,73.16
2019-06-15T09:03:01.055Z,73.36
2019-06-15T09:05:30.354Z,73.00
2019-06-15T09:07:58.972Z,73.46
2019-06-15T09:10:28.034Z,73.09
2019-06-15T09:12:56.653Z,72.74
2019-06-15T09:15:36.234Z,72.48
2019-06-15T09:18:04.879Z,72.78
2019-06-15T09:20:33.517Z,79.57
2019-06-15T09:23:02.429Z,86.94
2019-06-15T09:25:31.443Z,92.87
2019-06-15T09:28:00.425Z,95.76
2019-06-15T09:30:32.009Z,98.12
2019-06-15T09:33:01.136Z,99.30
2019-06-15T09:35:30.129Z,100.00
2019-06-15T09:37:59.439Z,100.00
2019-06-15T09:40:28.328Z,100.00
2019-06-15T09:42:57.318Z,100.00
2019-06-15T09:45:25.985Z,100.00
2019-06-15T09:47:55.306Z,100.00
2019-06-15T09:50:24.026Z,100.00
2019-06-15T09:52:52.987Z,100.00
2019-06-15T09:55:21.709Z,100.00
2019-06-15T09:57:50.763Z,100.00
2019-06-15T10:00:19.501Z,100.00
2019-06-15T10:02:48.447Z,100.00
2019-06-15T10:05:17.169Z,100.00
2019-06-15T10:07:46.127Z,100.00
2019-06-15T10:10:16.770Z,100.00
2019-06-15T10:12:45.406Z,100.00
2019-06-15T10:15:16.083Z,100.00
2019-06-15T10:17:45.069Z,100.00
2019-06-15T10:20:15.257Z,100.00
2019-06-15T10:22:43.943Z,100.00
2019-06-15T10:25:12.657Z,100.00
2019-06-15T10:27:41.662Z,100.00
2019-06-15T10:30:10.724Z,100.00
2019-06-15T10:32:39.961Z,100.00
2019-06-15T10:35:08.961Z,100.00
2019-06-15T10:37:37.901Z,100.00
2019-06-15T10:40:07.073Z,100.00
2019-06-15T10:42:35.784Z,100.00
2019-06-15T10:45:04.892Z,100.00
2019-06-15T10:47:33.927Z,100.00
2019-06-15T10:50:02.923Z,100.00
2019-06-15T10:52:31.926Z,100.00
2019-06-15T10:55:00.595Z,100.00
2019-06-15T10:57:29.906Z,100.00
2019-06-15T10:59:58.636Z,100.00
2019-06-15T11:02:27.301Z,100.00
2019-06-15T11:04:56.267Z,100.00
2019-06-15T11:07:25.574Z,100.00
2019-06-15T11:09:54.223Z,100.00
2019-06-15T11:12:22.957Z,100.00
2019-06-15T11:14:51.978Z,100.00
2019-06-15T11:17:21.030Z,100.00
2019-06-15T11:19:50.044Z,100.00
2019-06-15T11:22:19.140Z,100.00
2019-06-15T11:24:48.063Z,100.00
2019-06-15T11:27:16.853Z,100.00
2019-06-15T11:29:45.918Z,100.00
2019-06-15T11:32:15.016Z,100.00
2019-06-15T11:34:43.712Z,97.44
2019-06-15T11:37:12.769Z,97.63
2019-06-15T11:39:41.648Z,95.84
2019-06-15T11:42:10.661Z,93.90
2019-06-15T11:44:40.226Z,92.25
2019-06-15T11:47:09.153Z,89.67
2019-06-15T11:49:38.146Z,89.30
2019-06-15T11:52:07.140Z,85.51
2019-06-15T11:54:35.869Z,85.49
2019-06-15T11:57:04.579Z,86.34
2019-06-15T11:59:33.249Z,86.28
2019-06-15T12:02:01.887Z,87.07
2019-06-15T12:04:31.091Z,87.59
2019-06-15T12:07:00.079Z,87.60
2019-06-15T12:09:28.699Z,86.97
2019-06-15T12:11:57.336Z,86.25
2019-06-15T12:14:25.969Z,84.76
2019-06-15T12:16:54.927Z,86.09
2019-06-15T12:19:23.944Z,84.95
2019-06-15T12:21:52.876Z,85.78
2019-06-15T12:24:21.810Z,84.91
2019-06-15T12:26:50.444Z,84.16
2019-06-15T12:29:19.177Z,84.47
2019-06-15T12:31:47.807Z,83.32
2019-06-15T12:34:16.869Z,81.55
2019-06-15T12:36:46.168Z,80.68
2019-06-15T12:39:15.368Z,80.32
2019-06-15T12:41:44.006Z,78.25
2019-06-15T12:44:13.245Z,78.85
2019-06-15T12:46:41.872Z,77.64
2019-06-15T12:49:10.537Z,78.34
2019-06-15T12:51:40.878Z,77.84
2019-06-15T12:54:10.050Z,76.66
2019-06-15T12:56:44.163Z,75.55
2019-06-15T12:59:12.762Z,75.43
2019-06-15T13:01:41.770Z,74.86
2019-06-15T13:04:10.729Z,76.25
2019-06-15T13:06:40.043Z,75.04
2019-06-15T13:09:09.127Z,75.16
2019-06-15T13:11:37.845Z,75.14
2019-06-15T13:14:06.572Z,74.72
2019-06-15T13:16:39.490Z,72.80
2019-06-15T13:19:06.428Z,72.77
2019-06-15T13:21:35.495Z,72.45
2019-06-15T13:24:06.163Z,72.74
2019-06-15T13:26:34.798Z,73.15
2019-06-15T13:29:03.837Z,72.70
2019-06-15T13:31:32.485Z,73.37
2019-06-15T13:34:01.723Z,74.03
2019-06-15T13:36:30.615Z,73.28
2019-06-15T13:38:59.261Z,72.03
2019-06-15T13:41:28.605Z,72.44
2019-06-15T13:43:57.515Z,72.46
2019-06-15T13:46:26.181Z,71.52
2019-06-15T13:48:55.199Z,72.12
2019-06-15T13:51:23.828Z,71.19
2019-06-15T13:53:52.543Z,71.10
2019-06-15T13:56:21.541Z,70.89
2019-06-15T13:58:50.534Z,71.17
2019-06-15T14:01:33.327Z,71.21
2019-06-15T14:03:49.785Z,71.60
2019-06-15T14:06:18.439Z,70.48
2019-06-15T14:08:47.434Z,69.72
2019-06-15T14:11:16.070Z,69.77
2019-06-15T14:13:45.000Z,68.11
2019-06-15T14:16:13.907Z,66.27
2019-06-15T14:18:42.793Z,64.43
2019-06-15T14:21:11.428Z,66.66
2019-06-15T14:23:40.695Z,68.56
2019-06-15T14:26:09.670Z,70.93
2019-06-15T14:28:38.871Z,71.70
2019-06-15T14:31:07.910Z,71.64
2019-06-15T14:33:36.479Z,71.72
2019-06-15T14:36:05.197Z,72.29
2019-06-15T14:38:33.834Z,72.81
2019-06-15T14:41:02.752Z,73.52
2019-06-15T14:43:31.632Z,74.52
2019-06-15T14:46:00.607Z,74.68
2019-06-15T14:48:29.593Z,75.37
2019-06-15T14:50:58.593Z,75.04
2019-06-15T14:53:27.477Z,75.90
2019-06-15T14:55:56.634Z,75.38
2019-06-15T14:58:26.371Z,76.51
2019-06-15T15:00:57.114Z,76.49
2019-06-15T15:03:26.346Z,76.76
2019-06-15T15:05:55.208Z,77.56
2019-06-15T15:08:26.310Z,78.51
2019-06-15T15:10:56.296Z,77.66
2019-06-15T15:13:26.449Z,77.09
2019-06-15T15:15:57.041Z,76.80
2019-06-15T15:18:27.027Z,77.16
2019-06-15T15:20:56.664Z,76.78
2019-06-15T15:23:25.960Z,76.95
2019-06-15T15:25:57.506Z,76.80
2019-06-15T15:28:25.988Z,76.82
2019-06-15T15:30:54.876Z,75.62
2019-06-15T15:33:24.179Z,76.66
2019-06-15T15:35:53.172Z,76.82
2019-06-15T15:38:21.838Z,76.08
2019-06-15T15:40:50.759Z,75.93
2019-06-15T15:43:19.855Z,75.94
2019-06-15T15:45:49.051Z,75.37
2019-06-15T15:48:20.923Z,75.10
2019-06-15T15:50:48.899Z,74.51
2019-06-15T15:53:18.075Z,74.30
2019-06-15T15:55:46.911Z,75.38
2019-06-15T15:58:16.643Z,74.66
2019-06-15T16:00:46.829Z,74.75
2019-06-15T16:03:16.191Z,75.58
2019-06-15T16:05:47.153Z,75.96
2019-06-15T16:08:16.427Z,75.59
2019-06-15T16:10:46.276Z,76.08
2019-06-15T16:13:16.595Z,75.92
2019-06-15T16:15:46.230Z,76.04
2019-06-15T16:18:17.436Z,76.26
2019-06-15T16:20:47.094Z,76.33
2019-06-15T16:23:16.204Z,76.41
2019-06-15T16:25:46.462Z,76.38
2019-06-15T16:28:15.394Z,76.94
2019-06-15T16:31:03.821Z,78.07
2019-06-15T16:33:16.220Z,78.21
2019-06-15T16:35:46.663Z,78.05
2019-06-15T16:38:19.303Z,77.34
2019-06-15T16:40:46.972Z,77.11
2019-06-15T16:43:17.510Z,78.05
2019-06-15T16:45:46.731Z,76.84
2019-06-15T16:48:16.851Z,76.20
2019-06-15T16:50:46.896Z,76.18
2019-06-15T16:53:16.850Z,77.25
2019-06-15T16:55:46.823Z,76.68
2019-06-15T16:58:16.256Z,76.57
2019-06-15T17:00:47.747Z,77.06
2019-06-15T17:03:22.097Z,77.44
2019-06-15T17:05:46.987Z,77.96
2019-06-15T17:08:17.271Z,77.93
2019-06-15T17:10:46.178Z,77.10
2019-06-15T17:13:16.053Z,77.31
2019-06-15T17:15:46.920Z,76.55
2019-06-15T17:18:15.448Z,76.08
2019-06-15T17:20:49.584Z,76.33
2019-06-15T17:23:18.720Z,76.97
2019-06-15T17:25:48.324Z,77.14
2019-06-15T17:28:16.980Z,76.23
2019-06-15T17:30:46.010Z,76.15
2019-06-15T17:33:16.492Z,76.03
2019-06-15T17:35:58.061Z,75.96
2019-06-15T17:38:16.697Z,76.64
2019-06-15T17:40:46.226Z,77.12
2019-06-15T17:43:16.153Z,77.79
2019-06-15T17:45:46.887Z,79.26
2019-06-15T17:48:17.431Z,80.54
2019-06-15T17:50:47.752Z,81.02
2019-06-15T17:53:17.071Z,81.54
2019-06-15T17:55:46.980Z,81.50
2019-06-15T17:58:17.072Z,82.30
2019-06-15T18:00:47.152Z,83.05
2019-06-15T18:03:17.487Z,83.13
2019-06-15T18:05:48.161Z,83.73
2019-06-15T18:08:17.316Z,83.49
2019-06-15T18:10:47.568Z,83.55
2019-06-15T18:13:17.242Z,83.42
2019-06-15T18:15:47.628Z,82.98
2019-06-15T18:18:17.262Z,82.49
2019-06-15T18:20:46.980Z,82.15
2019-06-15T18:23:17.497Z,81.84
2019-06-15T18:25:46.997Z,81.92
2019-06-15T18:28:17.466Z,82.36
2019-06-15T18:30:46.893Z,81.98
2019-06-15T18:33:16.420Z,82.01
2019-06-15T18:35:47.492Z,82.34
2019-06-15T18:38:16.189Z,82.53
2019-06-15T18:40:45.181Z,82.41
2019-06-15T18:43:16.677Z,82.75
2019-06-15T18:45:47.171Z,82.31
2019-06-15T18:48:16.847Z,82.39
2019-06-15T18:50:46.077Z,82.59
2019-06-15T18:53:15.065Z,83.14
2019-06-15T18:55:43.998Z,82.83
2019-06-15T18:58:12.672Z,83.14
2019-06-15T19:00:41.985Z,83.35
2019-06-15T19:03:10.615Z,84.06
2019-06-15T19:05:40.917Z,84.77
2019-06-15T19:08:09.843Z,84.91
2019-06-15T19:10:38.942Z,85.48
2019-06-15T19:13:07.878Z,86.06
2019-06-15T19:15:37.691Z,86.46
2019-06-15T19:18:07.803Z,86.15
2019-06-15T19:20:37.435Z,86.85
2019-06-15T19:23:07.147Z,86.75
2019-06-15T19:25:36.807Z,86.47
2019-06-15T19:28:05.944Z,85.28
2019-06-15T19:30:37.371Z,85.13
2019-06-15T19:33:05.651Z,85.19
2019-06-15T19:35:36.320Z,84.91
2019-06-15T19:38:06.476Z,84.99
2019-06-15T19:40:37.785Z,85.59
2019-06-15T19:43:06.813Z,85.31
2019-06-15T19:45:37.078Z,85.40
2019-06-15T19:48:06.801Z,85.51
2019-06-15T19:50:36.455Z,85.92
2019-06-15T19:53:06.982Z,85.49
2019-06-15T19:55:36.320Z,85.51
2019-06-15T19:58:07.261Z,85.41
2019-06-15T20:00:36.547Z,85.35
2019-06-15T20:03:06.996Z,85.21
2019-06-15T20:05:36.993Z,85.18
2019-06-15T20:08:07.125Z,85.43
2019-06-15T20:10:36.963Z,85.10
2019-06-15T20:13:07.211Z,85.33
2019-06-15T20:15:37.836Z,85.66
2019-06-15T20:18:07.245Z,85.98
2019-06-15T20:20:37.136Z,85.79
2019-06-15T20:23:07.271Z,85.88
2019-06-15T20:25:36.951Z,86.37
2019-06-15T20:28:07.306Z,86.84
2019-06-15T20:30:36.949Z,86.88
2019-06-15T20:33:07.935Z,87.28
2019-06-15T20:35:36.232Z,87.12
2019-06-15T20:38:04.963Z,87.29
2019-06-15T20:40:36.261Z,87.63
2019-06-15T20:43:04.477Z,88.03
2019-06-15T20:45:33.481Z,88.38
2019-06-15T20:48:02.468Z,88.33
2019-06-15T20:50:31.137Z,89.65
2019-06-15T20:53:00.359Z,89.26
2019-06-15T20:55:29.089Z,88.92
2019-06-15T20:57:58.340Z,88.76
2019-06-15T21:00:27.340Z,88.78
2019-06-15T21:02:56.372Z,89.46
2019-06-15T21:05:36.952Z,89.04
2019-06-15T21:07:57.635Z,88.91
2019-06-15T21:10:26.603Z,88.77
2019-06-15T21:12:55.903Z,88.72
2019-06-15T21:15:28.262Z,89.09
2019-06-15T21:17:57.713Z,89.40
2019-06-15T21:20:26.902Z,89.35
2019-06-15T21:22:57.167Z,89.33
2019-06-15T21:25:26.431Z,89.32
2019-06-15T21:27:56.762Z,89.14
2019-06-15T21:30:27.107Z,88.59
2019-06-15T21:32:56.172Z,88.09
2019-06-15T21:35:26.779Z,87.82
2019-06-15T21:37:57.106Z,87.15
2019-06-15T21:40:27.311Z,87.32
2019-06-15T21:42:56.469Z,87.31
2019-06-15T21:45:25.158Z,87.46
2019-06-15T21:47:56.035Z,87.65
2019-06-15T21:50:26.783Z,88.38
2019-06-15T21:52:56.523Z,88.80
2019-06-15T21:55:26.845Z,89.04
2019-06-15T21:57:56.452Z,89.26
2019-06-15T22:00:39.434Z,89.42
2019-06-15T22:03:08.307Z,89.42
2019-06-15T22:05:37.189Z,89.01
2019-06-15T22:08:06.540Z,89.88
2019-06-15T22:10:36.047Z,90.15
2019-06-15T22:13:06.545Z,89.92
2019-06-15T22:15:35.469Z,88.52
2019-06-15T22:18:06.791Z,89.85
2019-06-15T22:20:36.033Z,90.80
2019-06-15T22:23:06.736Z,91.73
2019-06-15T22:25:36.090Z,92.69
2019-06-15T22:28:06.954Z,92.71
2019-06-15T22:30:36.656Z,93.38
2019-06-15T22:33:06.783Z,94.28
2019-06-15T22:35:36.384Z,94.26
2019-06-15T22:38:07.234Z,95.05
2019-06-15T22:40:36.386Z,95.32
2019-06-15T22:43:07.012Z,95.23
2019-06-15T22:45:36.065Z,94.93
2019-06-15T22:48:06.778Z,94.78
2019-06-15T22:50:36.092Z,94.54
2019-06-15T22:53:07.258Z,94.59
2019-06-15T22:55:36.996Z,94.10
2019-06-15T22:58:06.428Z,93.75
2019-06-15T23:00:37.583Z,93.61
2019-06-15T23:03:06.546Z,93.71
2019-06-15T23:05:35.808Z,94.28
2019-06-15T23:08:06.960Z,94.04
2019-06-15T23:10:36.778Z,93.58
2019-06-15T23:13:06.512Z,92.91
2019-06-15T23:15:37.131Z,92.41
2019-06-15T23:18:06.726Z,91.73
2019-06-15T23:20:36.860Z,92.46
2019-06-15T23:23:07.926Z,91.63
2019-06-15T23:25:37.165Z,91.10
2019-06-15T23:28:07.064Z,91.05
2019-06-15T23:30:36.573Z,90.75
2019-06-15T23:33:06.550Z,90.87
2019-06-15T23:35:41.846Z,90.12
2019-06-15T23:38:11.145Z,89.68
2019-06-15T23:40:39.851Z,89.84
2019-06-15T23:43:08.483Z,89.11
2019-06-15T23:45:37.416Z,89.43
2019-06-15T23:48:06.136Z,89.59
2019-06-15T23:50:36.772Z,89.46
2019-06-15T23:53:05.418Z,89.48
2019-06-15T23:55:36.642Z,90.00
2019-06-15T23:58:06.693Z,89.05
